Time;durP1;ratioP1;P1;durP2;ratioP2;P2;SDS_P1;SDS_P2;PMS_P1;PMS_P2;Temp;Humidity;BMP_temperature;BMP_pressure;BME280_temperature;BME280_humidity;BME280_pressure;Samples;Min_cycle;Max_cycle;Signal;HPM_P1;HPM_P2
2023/03/26 00:02:19;;;;;;;1253.60;536.28;;;15.80;70.90;;;;;;5036374;28;20045;-42
2023/03/26 00:04:46;;;;;;;1270.47;534.92;;;15.80;70.90;;;;;;5035737;28;20053;-39
2023/03/26 00:07:14;;;;;;;1279.38;551.45;;;15.80;71.50;;;;;;5036265;28;20045;-43
2023/03/26 00:09:40;;;;;;;1342.47;570.08;;;15.80;70.90;;;;;;5036170;28;20053;-40
2023/03/26 00:12:07;;;;;;;1381.30;572.28;;;15.80;70.90;;;;;;5035480;28;20041;-40
2023/03/26 00:14:34;;;;;;;1402.75;586.75;;;15.80;70.90;;;;;;5035693;28;20148;-41
2023/03/26 00:17:01;;;;;;;1466.88;601.15;;;15.80;71.30;;;;;;5035646;28;20408;-43
2023/03/26 00:19:29;;;;;;;1455.03;597.33;;;15.80;70.80;;;;;;5035487;28;20084;-41
2023/03/26 00:21:56;;;;;;;1522.25;624.35;;;15.80;70.90;;;;;;5035576;28;20511;-41
2023/03/26 00:24:28;;;;;;;1455.25;603.53;;;15.80;70.90;;;;;;5035460;28;20049;-40
2023/03/26 00:26:55;;;;;;;1509.50;621.03;;;15.80;70.90;;;;;;5035175;28;20049;-41
2023/03/26 00:29:23;;;;;;;1577.38;639.97;;;15.80;71.00;;;;;;5035103;28;20468;-41
2023/03/26 00:31:50;;;;;;;1481.00;613.83;;;15.80;70.90;;;;;;5035622;28;20107;-41
2023/03/26 00:34:17;;;;;;;1672.50;659.47;;;15.70;70.90;;;;;;5034932;28;20571;-42
2023/03/26 00:36:45;;;;;;;1565.72;637.92;;;15.80;71.00;;;;;;5035602;28;20115;-39
2023/03/26 00:39:12;;;;;;;1696.18;677.53;;;15.80;70.90;;;;;;5034909;28;20515;-39
2023/03/26 00:41:41;;;;;;;1602.25;646.15;;;15.70;70.80;;;;;;5035387;28;20063;-42
2023/03/26 00:44:09;;;;;;;1739.30;679.88;;;15.70;70.90;;;;;;5035237;28;20404;-42
2023/03/26 00:46:36;;;;;;;1676.18;668.00;;;15.70;71.00;;;;;;5035050;28;20377;-39
2023/03/26 00:49:03;;;;;;;1717.25;675.70;;;15.70;70.90;;;;;;5035493;28;20056;-39
2023/03/26 00:51:29;;;;;;;1741.75;692.28;;;15.70;70.90;;;;;;5035202;28;20060;-42
2023/03/26 00:53:56;;;;;;;1752.00;696.60;;;15.70;70.90;;;;;;5033757;28;20049;-40
2023/03/26 00:56:23;;;;;;;1727.18;685.47;;;15.70;71.00;;;;;;5032664;28;20139;-43
2023/03/26 00:58:50;;;;;;;1777.20;701.13;;;15.70;71.00;;;;;;5034913;28;20091;-39
2023/03/26 01:01:26;;;;;;;1756.20;693.25;;;15.70;71.10;;;;;;5034367;28;20053;-44
2023/03/26 01:03:58;;;;;;;1766.50;698.53;;;15.70;71.00;;;;;;5034064;28;20050;-44
2023/03/26 01:06:35;;;;;;;1819.90;702.67;;;15.70;71.00;;;;;;5034984;28;20085;-40
2023/03/26 01:09:06;;;;;;;1823.47;715.25;;;15.70;71.10;;;;;;5032995;28;20489;-41
2023/03/26 01:11:33;;;;;;;1844.85;715.13;;;15.70;71.00;;;;;;5033845;28;20049;-41
2023/03/26 01:14:08;;;;;;;1864.72;729.58;;;15.70;71.10;;;;;;5033656;28;20053;-43
2023/03/26 01:16:48;;;;;;;1907.68;737.13;;;15.60;71.00;;;;;;5032913;28;20053;-40
2023/03/26 01:19:36;;;;;;;1912.50;735.88;;;15.60;71.00;;;;;;5034371;28;20046;-41
2023/03/26 01:22:05;;;;;;;1894.95;729.25;;;15.70;71.10;;;;;;5034002;28;20049;-44
2023/03/26 01:24:32;;;;;;;1895.82;733.58;;;15.70;71.20;;;;;;5034584;28;20045;-42
2023/03/26 01:27:04;;;;;;;1894.13;733.10;;;15.60;71.10;;;;;;5034486;28;20199;-42
2023/03/26 01:29:52;;;;;;;1916.50;741.42;;;15.60;71.20;;;;;;5033573;28;20045;-40
2023/03/26 01:32:31;;;;;;;1952.45;744.40;;;15.60;71.20;;;;;;5033571;28;20053;-41
2023/03/26 01:35:13;;;;;;;1942.68;744.28;;;15.60;71.20;;;;;;5034542;28;20050;-40
2023/03/26 01:38:09;;;;;;;1953.30;755.70;;;15.60;71.20;;;;;;5032913;28;20049;-42
2023/03/26 01:40:48;;;;;;;1962.40;742.58;;;15.60;71.20;;;;;;5034295;28;20041;-40
2023/03/26 01:43:29;;;;;;;1938.47;744.92;;;15.60;71.20;;;;;;5032561;28;20515;-40
2023/03/26 01:45:57;;;;;;;1975.90;753.75;;;15.60;71.20;;;;;;5032817;28;20081;-42
2023/03/26 01:48:36;;;;;;;1941.40;739.05;;;15.60;71.20;;;;;;5033251;28;20045;-41
2023/03/26 01:51:03;;;;;;;1967.18;744.40;;;15.60;71.20;;;;;;5033874;28;20080;-46
2023/03/26 01:53:32;;;;;;;1916.32;746.20;;;15.60;71.20;;;;;;5033607;28;20538;-41
2023/03/26 01:56:12;;;;;;;1992.90;762.90;;;15.60;71.20;;;;;;5032303;28;20060;-43
2023/03/26 01:58:59;;;;;;;1896.32;729.78;;;15.60;71.20;;;;;;5030554;28;20077;-42
2023/03/26 02:01:36;;;;;;;1956.90;749.70;;;15.60;71.20;;;;;;5032429;28;20148;-39
2023/03/26 02:04:13;;;;;;;1994.78;767.58;;;15.60;71.30;;;;;;5033477;28;20060;-41
2023/03/26 02:06:57;;;;;;;1937.18;743.28;;;15.50;71.20;;;;;;5032795;28;20054;-42
2023/03/26 02:09:26;;;;;;;1976.60;752.47;;;15.50;71.20;;;;;;5033307;28;20457;-40
2023/03/26 02:11:53;;;;;;;1879.45;739.15;;;15.60;71.30;;;;;;5031929;28;20096;-40
2023/03/26 02:14:19;;;;;;;1953.95;750.75;;;15.50;71.20;;;;;;5032665;28;20136;-40
2023/03/26 02:16:46;;;;;;;1949.25;752.22;;;15.50;71.20;;;;;;5032266;28;20088;-42
2023/03/26 02:19:20;;;;;;;1911.85;744.22;;;15.50;71.30;;;;;;5033040;28;20104;-41
2023/03/26 02:21:51;;;;;;;1873.38;727.42;;;15.50;71.20;;;;;;5033411;28;20053;-39
2023/03/26 02:24:18;;;;;;;1905.10;739.85;;;15.50;71.20;;;;;;5033321;28;20343;-41
2023/03/26 02:26:45;;;;;;;1890.85;732.58;;;15.50;71.20;;;;;;5032707;28;20057;-40
2023/03/26 02:29:13;;;;;;;1862.78;730.38;;;15.50;71.20;;;;;;5033048;28;20050;-39
2023/03/26 02:31:39;;;;;;;1844.05;727.35;;;15.50;71.20;;;;;;5033109;28;20055;-40
2023/03/26 02:34:06;;;;;;;1846.45;730.58;;;15.40;71.30;;;;;;5033211;28;20052;-41
2023/03/26 02:36:34;;;;;;;1812.55;717.13;;;15.50;71.30;;;;;;5033055;28;20476;-42
2023/03/26 02:39:01;;;;;;;1804.55;721.67;;;15.50;71.20;;;;;;5033016;28;20045;-43
2023/03/26 02:41:28;;;;;;;1746.38;705.75;;;15.50;71.30;;;;;;5033276;28;20054;-41
2023/03/26 02:43:54;;;;;;;1730.28;695.65;;;15.40;71.30;;;;;;5033181;28;20073;-42
2023/03/26 02:46:21;;;;;;;1722.15;697.80;;;15.50;71.30;;;;;;5032882;28;20092;-41
2023/03/26 02:48:48;;;;;;;1695.38;703.05;;;15.40;71.30;;;;;;5033114;28;20041;-42
2023/03/26 02:51:17;;;;;;;1681.63;688.80;;;15.50;71.30;;;;;;5032875;28;20076;-41
2023/03/26 02:53:43;;;;;;;1658.20;674.00;;;15.50;71.30;;;;;;5032305;28;20042;-42
2023/03/26 02:56:11;;;;;;;1579.00;657.53;;;15.40;71.30;;;;;;5032437;28;20055;-41
2023/03/26 02:58:38;;;;;;;1564.20;650.80;;;15.40;71.30;;;;;;5032493;28;20543;-44
2023/03/26 03:01:04;;;;;;;1591.53;657.70;;;15.40;71.30;;;;;;5029660;28;20224;-41
2023/03/26 03:03:33;;;;;;;1522.70;646.45;;;15.40;71.30;;;;;;5032744;28;20060;-40
2023/03/26 03:06:00;;;;;;;1538.47;640.63;;;15.40;71.30;;;;;;5033028;28;20111;-40
2023/03/26 03:08:27;;;;;;;1486.25;629.75;;;15.40;71.30;;;;;;5032173;28;20045;-43
2023/03/26 03:11:01;;;;;;;1476.15;627.67;;;15.40;71.30;;;;;;5033001;28;20059;-43
2023/03/26 03:13:28;;;;;;;1450.72;607.67;;;15.40;71.40;;;;;;5032741;28;20045;-42
2023/03/26 03:15:55;;;;;;;1410.95;613.08;;;15.40;71.30;;;;;;5032092;28;20053;-40
2023/03/26 03:18:22;;;;;;;1377.45;603.22;;;15.40;71.30;;;;;;5032737;28;20168;-40
2023/03/26 03:20:49;;;;;;;1433.60;615.20;;;15.40;71.40;;;;;;5032888;28;20045;-40
2023/03/26 03:23:16;;;;;;;1361.55;584.13;;;15.40;71.30;;;;;;5032078;28;20060;-41
2023/03/26 03:25:42;;;;;;;1319.13;584.28;;;15.40;71.30;;;;;;5032081;28;20476;-39
2023/03/26 03:28:10;;;;;;;1309.75;574.55;;;15.30;71.30;;;;;;5030451;28;20416;-39
2023/03/26 03:30:36;;;;;;;1287.40;560.50;;;15.40;71.40;;;;;;5032050;28;20052;-42
2023/03/26 03:33:04;;;;;;;1284.03;556.40;;;15.30;71.40;;;;;;5032754;28;20129;-39
2023/03/26 03:35:32;;;;;;;1263.60;558.03;;;15.30;71.40;;;;;;5032126;28;20046;-42
2023/03/26 03:37:59;;;;;;;1204.10;536.88;;;15.30;71.40;;;;;;5032394;28;20496;-41
2023/03/26 03:40:26;;;;;;;1172.47;531.22;;;15.40;71.50;;;;;;5032418;28;20448;-41
2023/03/26 03:42:52;;;;;;;1172.32;514.33;;;15.30;71.30;;;;;;5032140;28;20056;-42
2023/03/26 03:45:19;;;;;;;1157.28;516.70;;;15.40;71.40;;;;;;5032529;28;20052;-41
2023/03/26 03:47:46;;;;;;;1133.68;508.15;;;15.30;72.00;;;;;;5032233;28;20046;-39
2023/03/26 03:50:13;;;;;;;1096.57;490.23;;;15.30;71.40;;;;;;5032009;28;20049;-43
2023/03/26 03:52:39;;;;;;;1073.97;484.33;;;15.30;71.30;;;;;;5032356;28;20080;-42
2023/03/26 03:55:06;;;;;;;1078.63;488.63;;;15.30;71.30;;;;;;5031876;28;20500;-40
2023/03/26 03:57:33;;;;;;;1049.82;479.95;;;15.30;71.30;;;;;;5031419;28;20412;-40
2023/03/26 04:00:00;;;;;;;1028.05;458.88;;;15.30;71.30;;;;;;5031832;28;20768;-40
2023/03/26 04:02:33;;;;;;;1033.75;464.98;;;15.30;71.40;;;;;;5032033;28;20156;-44
2023/03/26 04:05:01;;;;;;;1007.90;452.63;;;15.30;71.40;;;;;;5029440;28;20096;-40
2023/03/26 04:07:30;;;;;;;967.45;442.02;;;15.30;71.40;;;;;;5032151;28;20053;-43
2023/03/26 04:09:58;;;;;;;970.35;439.38;;;15.30;71.40;;;;;;5032122;28;20136;-41
2023/03/26 04:12:28;;;;;;;933.47;425.10;;;15.30;71.40;;;;;;5031537;28;20447;-42
2023/03/26 04:14:55;;;;;;;936.33;423.48;;;15.30;71.40;;;;;;5031910;28;20192;-44
2023/03/26 04:17:22;;;;;;;920.35;417.50;;;15.30;71.40;;;;;;5031458;28;20104;-41
2023/03/26 04:19:51;;;;;;;886.40;399.15;;;15.30;71.40;;;;;;5031863;28;20045;-41
2023/03/26 04:22:18;;;;;;;891.22;397.85;;;15.30;71.40;;;;;;5031821;28;20053;-41
2023/03/26 04:24:47;;;;;;;849.70;388.88;;;15.30;71.40;;;;;;5031455;28;20122;-42
2023/03/26 04:27:16;;;;;;;839.15;375.88;;;15.30;71.40;;;;;;5031653;28;20046;-43
2023/03/26 04:29:44;;;;;;;869.17;391.98;;;15.30;71.40;;;;;;5030178;28;20115;-41
2023/03/26 04:32:23;;;;;;;843.20;377.33;;;15.30;71.40;;;;;;5033478;28;20053;-42
2023/03/26 04:34:51;;;;;;;813.97;369.55;;;15.30;71.30;;;;;;5035564;28;20435;-41
2023/03/26 04:37:38;;;;;;;802.08;357.90;;;15.30;71.40;;;;;;5034254;28;20419;-39
2023/03/26 04:40:09;;;;;;;796.45;357.42;;;15.30;71.40;;;;;;5035388;28;20059;-40
2023/03/26 04:42:40;;;;;;;776.67;349.83;;;15.30;71.40;;;;;;5035532;28;20050;-42
2023/03/26 04:45:07;;;;;;;769.92;347.85;;;15.30;71.40;;;;;;5035413;28;20056;-40
2023/03/26 04:47:35;;;;;;;742.53;337.92;;;15.30;71.40;;;;;;5035073;28;20075;-40
2023/03/26 04:50:06;;;;;;;743.22;331.92;;;15.30;71.40;;;;;;5034902;28;20079;-40
2023/03/26 04:52:33;;;;;;;744.03;329.80;;;15.30;71.30;;;;;;5034751;28;20129;-40
2023/03/26 04:55:00;;;;;;;736.72;331.30;;;15.30;71.40;;;;;;5034943;28;20042;-39
2023/03/26 04:57:39;;;;;;;723.47;322.52;;;15.30;71.40;;;;;;5034600;28;20072;-43
2023/03/26 05:00:14;;;;;;;696.88;309.88;;;15.30;71.40;;;;;;5034023;28;20088;-42
2023/03/26 05:02:42;;;;;;;698.33;312.48;;;15.30;71.40;;;;;;5021712;28;20079;-44
2023/03/26 05:05:09;;;;;;;690.92;301.65;;;15.20;71.30;;;;;;4998345;28;20072;-40
2023/03/26 05:07:35;;;;;;;686.95;304.98;;;15.30;71.60;;;;;;5010199;28;20408;-44
2023/03/26 05:10:03;;;;;;;670.75;298.67;;;15.30;71.50;;;;;;5027052;28;20049;-40
2023/03/26 05:12:30;;;;;;;654.92;289.60;;;15.30;71.40;;;;;;4995430;28;20108;-40
2023/03/26 05:14:56;;;;;;;652.25;283.25;;;15.20;71.40;;;;;;4999893;28;20050;-44
2023/03/26 05:17:23;;;;;;;634.28;277.42;;;15.20;71.40;;;;;;5015039;28;20064;-42
2023/03/26 05:19:50;;;;;;;627.63;270.83;;;15.20;71.30;;;;;;5013827;28;20121;-40
2023/03/26 05:22:18;;;;;;;623.00;273.45;;;15.30;71.40;;;;;;5014496;28;20046;-42
2023/03/26 05:24:44;;;;;;;614.38;268.52;;;15.30;71.40;;;;;;5014592;28;20056;-45
2023/03/26 05:27:15;;;;;;;605.67;265.58;;;15.30;71.40;;;;;;5014434;28;20500;-40
2023/03/26 05:29:42;;;;;;;600.28;254.75;;;15.30;71.40;;;;;;5013564;28;20137;-38
2023/03/26 05:32:09;;;;;;;588.90;253.98;;;15.30;71.40;;;;;;5014750;28;20056;-39
2023/03/26 05:34:40;;;;;;;582.58;247.57;;;15.30;71.40;;;;;;5013890;28;20484;-41
2023/03/26 05:37:08;;;;;;;567.22;239.93;;;15.30;71.50;;;;;;5014505;28;20100;-39
2023/03/26 05:39:34;;;;;;;567.22;237.82;;;15.20;71.30;;;;;;5014203;28;20077;-39
2023/03/26 05:42:01;;;;;;;556.72;236.25;;;15.30;71.40;;;;;;5013722;28;20085;-40
2023/03/26 05:44:28;;;;;;;548.70;225.57;;;15.20;71.40;;;;;;5014677;28;20073;-42
2023/03/26 05:46:55;;;;;;;546.35;221.95;;;15.20;71.40;;;;;;5014452;28;20144;-40
2023/03/26 05:49:21;;;;;;;531.58;218.70;;;15.30;71.40;;;;;;5013813;28;20484;-44
2023/03/26 05:51:48;;;;;;;513.45;214.13;;;15.20;71.30;;;;;;5014048;28;20072;-42
2023/03/26 05:54:15;;;;;;;509.85;209.00;;;15.20;71.30;;;;;;5013952;28;20046;-39
2023/03/26 05:56:41;;;;;;;503.98;207.45;;;15.30;71.40;;;;;;5013392;28;20477;-39
2023/03/26 05:59:08;;;;;;;489.13;200.10;;;15.20;71.30;;;;;;5014155;28;20050;-40
2023/03/26 06:01:35;;;;;;;490.65;201.85;;;15.20;71.30;;;;;;5013678;28;20092;-42
2023/03/26 06:04:02;;;;;;;459.75;187.38;;;15.20;71.40;;;;;;5014274;28;20080;-39
2023/03/26 06:06:28;;;;;;;463.88;189.43;;;15.20;71.50;;;;;;5017496;28;20053;-49
2023/03/26 06:08:59;;;;;;;452.45;179.65;;;15.20;71.50;;;;;;5017231;28;20100;-46
2023/03/26 06:11:28;;;;;;;421.25;174.13;;;15.30;71.60;;;;;;5013433;28;20136;-48
2023/03/26 06:13:55;;;;;;;412.85;172.52;;;15.30;72.10;;;;;;5012106;28;20516;-44
2023/03/26 06:16:21;;;;;;;413.70;176.13;;;15.40;71.90;;;;;;5013425;28;20555;-49
2023/03/26 06:18:54;;;;;;;410.67;168.10;;;15.40;73.90;;;;;;5012829;28;20077;-43
2023/03/26 06:21:23;;;;;;;389.77;154.38;;;15.40;73.70;;;;;;5013809;28;20548;-44
2023/03/26 06:23:50;;;;;;;381.73;154.35;;;15.50;73.40;;;;;;4932501;28;20129;-44
2023/03/26 06:26:17;;;;;;;382.73;151.25;;;15.50;73.30;;;;;;4965153;28;20058;-44
2023/03/26 06:28:44;;;;;;;370.08;149.43;;;15.50;73.40;;;;;;5012962;28;20104;-47
2023/03/26 06:31:10;;;;;;;346.98;138.50;;;15.40;73.40;;;;;;5013115;28;20042;-43
2023/03/26 06:33:37;;;;;;;361.23;146.35;;;15.40;73.30;;;;;;5013321;28;20681;-47
2023/03/26 06:36:04;;;;;;;328.73;132.43;;;15.40;73.50;;;;;;5013245;28;20057;-45
2023/03/26 06:38:31;;;;;;;345.73;140.77;;;15.50;74.40;;;;;;5013065;28;20057;-42
2023/03/26 06:41:02;;;;;;;327.02;128.38;;;15.50;74.00;;;;;;5013462;28;20041;-44
2023/03/26 06:43:32;;;;;;;326.00;134.30;;;15.50;73.80;;;;;;5013680;28;20045;-46
2023/03/26 06:46:00;;;;;;;288.95;119.25;;;15.50;73.80;;;;;;5012516;28;20132;-45
2023/03/26 06:48:27;;;;;;;295.67;117.72;;;15.50;74.90;;;;;;5013515;28;20138;-48
2023/03/26 06:50:54;;;;;;;302.05;121.78;;;15.60;73.70;;;;;;5009913;28;20092;-50
2023/03/26 06:53:21;;;;;;;294.60;119.55;;;15.60;73.90;;;;;;5012585;28;20054;-45
2023/03/26 06:55:47;;;;;;;301.00;121.53;;;15.60;74.50;;;;;;5012335;28;20563;-45
2023/03/26 06:58:15;;;;;;;279.00;110.57;;;15.60;74.10;;;;;;5011834;28;20046;-45
2023/03/26 07:00:42;;;;;;;285.67;113.15;;;15.60;74.10;;;;;;5011977;28;20052;-42
2023/03/26 07:03:10;;;;;;;272.60;112.57;;;15.60;74.20;;;;;;5012717;28;20050;-50
2023/03/26 07:05:37;;;;;;;275.35;110.68;;;15.50;74.00;;;;;;5012910;28;20049;-48
2023/03/26 07:08:04;;;;;;;272.10;109.07;;;15.50;73.80;;;;;;5010746;28;20073;-48
2023/03/26 07:10:31;;;;;;;271.80;108.28;;;15.50;73.80;;;;;;5013003;28;20124;-44
2023/03/26 07:12:58;;;;;;;265.20;104.03;;;15.50;73.60;;;;;;5012890;28;20140;-43
2023/03/26 07:15:26;;;;;;;261.70;106.72;;;15.50;73.70;;;;;;5012753;28;20073;-46
2023/03/26 07:17:54;;;;;;;257.35;103.22;;;15.50;73.50;;;;;;4995257;28;20080;-48
2023/03/26 07:20:21;;;;;;;252.20;99.03;;;15.50;73.40;;;;;;5012619;28;20204;-46
2023/03/26 07:22:48;;;;;;;246.27;100.07;;;15.50;73.30;;;;;;5013055;28;20176;-46
2023/03/26 07:25:16;;;;;;;248.85;96.75;;;15.50;73.30;;;;;;5012664;28;20077;-47
2023/03/26 07:28:07;;;;;;;245.77;94.97;;;15.50;73.40;;;;;;5012382;28;20137;-46
2023/03/26 07:31:11;;;;;;;243.60;96.90;;;15.50;73.30;;;;;;5011643;28;20050;-49
2023/03/26 07:33:42;;;;;;;239.27;95.80;;;15.50;73.20;;;;;;5012788;28;20417;-47
2023/03/26 07:36:29;;;;;;;229.77;91.57;;;15.50;73.20;;;;;;5012307;28;20060;-49
2023/03/26 07:39:40;;;;;;;235.35;92.32;;;15.50;73.20;;;;;;5012936;28;20573;-48
2023/03/26 07:42:38;;;;;;;223.95;87.15;;;15.50;73.20;;;;;;5011653;28;20061;-49
2023/03/26 07:45:25;;;;;;;225.23;89.80;;;15.40;73.20;;;;;;5011776;28;20074;-48
2023/03/26 07:47:52;;;;;;;221.10;89.68;;;15.50;73.20;;;;;;5011415;28;20054;-47
2023/03/26 07:50:21;;;;;;;217.95;86.35;;;15.40;73.20;;;;;;5012198;28;20054;-48
2023/03/26 07:52:48;;;;;;;219.27;86.22;;;15.40;73.10;;;;;;5012490;28;20046;-45
2023/03/26 07:55:15;;;;;;;212.93;82.43;;;15.40;73.00;;;;;;5016899;28;20049;-45
2023/03/26 07:57:57;;;;;;;211.75;83.65;;;15.40;73.00;;;;;;5031927;28;20412;-46
2023/03/26 08:00:40;;;;;;;201.07;80.85;;;15.40;73.00;;;;;;5031460;28;20052;-48
2023/03/26 08:03:31;;;;;;;199.65;79.40;;;15.40;73.00;;;;;;5031647;28;20060;-48
2023/03/26 08:06:29;;;;;;;193.32;77.70;;;15.40;73.00;;;;;;5033037;28;20488;-50
2023/03/26 08:09:17;;;;;;;192.68;77.90;;;15.40;72.90;;;;;;5036241;28;20076;-48
2023/03/26 08:12:05;;;;;;;188.45;75.43;;;15.40;72.90;;;;;;5036013;28;20072;-46
2023/03/26 08:14:56;;;;;;;186.73;75.07;;;15.40;73.00;;;;;;5030934;28;20038;-48
2023/03/26 08:17:41;;;;;;;179.05;72.05;;;15.40;73.00;;;;;;5015710;28;20389;-50
2023/03/26 08:20:27;;;;;;;173.77;68.22;;;15.40;73.00;;;;;;5017162;28;20050;-48
2023/03/26 08:22:59;;;;;;;179.25;69.38;;;15.40;73.00;;;;;;5015056;28;20112;-46
2023/03/26 08:25:31;;;;;;;162.20;65.63;;;15.40;73.10;;;;;;5014412;28;20056;-50
2023/03/26 08:28:01;;;;;;;158.82;63.95;;;15.40;73.00;;;;;;5015039;28;20125;-47
2023/03/26 08:30:28;;;;;;;164.55;65.95;;;15.40;73.00;;;;;;5015036;28;20149;-50
2023/03/26 08:33:02;;;;;;;155.48;65.35;;;15.40;73.00;;;;;;5015865;28;20074;-45
2023/03/26 08:35:29;;;;;;;149.75;61.63;;;15.40;73.00;;;;;;5014387;28;20100;-48
2023/03/26 08:37:56;;;;;;;142.10;60.25;;;15.40;73.00;;;;;;5015060;28;20050;-48
2023/03/26 08:41:22;;;;;;;139.43;56.63;;;15.40;73.00;;;;;;5015848;28;20046;-49
2023/03/26 08:43:58;;;;;;;134.60;58.08;;;15.40;72.80;;;;;;4954857;29;20413;-46
2023/03/26 08:46:55;;;;;;;131.18;57.08;;;15.50;72.80;;;;;;5007964;28;20045;-48
2023/03/26 08:49:56;;;;;;;131.55;56.58;;;15.50;72.70;;;;;;5015498;28;20045;-50
2023/03/26 08:52:39;;;;;;;124.45;53.20;;;15.50;72.70;;;;;;5013690;28;20485;-49
2023/03/26 08:55:12;;;;;;;124.05;54.85;;;15.50;72.60;;;;;;5014522;28;20060;-42
2023/03/26 08:58:08;;;;;;;119.43;53.00;;;15.50;72.60;;;;;;5015232;28;20046;-49
2023/03/26 09:00:47;;;;;;;113.88;51.80;;;15.60;72.60;;;;;;5013777;28;20053;-49
2023/03/26 09:03:29;;;;;;;109.70;48.78;;;15.60;72.60;;;;;;5014365;28;20133;-45
2023/03/26 09:06:05;;;;;;;106.45;47.92;;;15.60;72.40;;;;;;5014509;28;20107;-49
2023/03/26 09:08:53;;;;;;;105.10;46.08;;;15.60;72.30;;;;;;5015233;28;20080;-49
2023/03/26 09:11:35;;;;;;;103.65;47.13;;;15.70;72.20;;;;;;5015012;28;20050;-47
2023/03/26 09:14:10;;;;;;;104.30;46.30;;;15.70;72.20;;;;;;5013349;28;20052;-47
2023/03/26 09:16:52;;;;;;;92.97;44.78;;;15.70;72.10;;;;;;4994723;28;20062;-48
2023/03/26 09:19:37;;;;;;;100.10;44.47;;;15.70;72.00;;;;;;4995128;28;20054;-46
2023/03/26 09:22:16;;;;;;;100.25;45.45;;;15.70;72.10;;;;;;4994137;28;20556;-48
2023/03/26 09:24:46;;;;;;;91.15;42.00;;;15.70;72.00;;;;;;4994081;28;20153;-48
2023/03/26 09:27:52;;;;;;;93.68;42.08;;;15.70;72.00;;;;;;4994637;28;20501;-48
2023/03/26 09:30:56;;;;;;;93.88;42.55;;;15.70;72.20;;;;;;4993888;28;20108;-45
2023/03/26 09:33:47;;;;;;;90.10;40.92;;;15.70;72.20;;;;;;4995256;28;20074;-48
2023/03/26 09:36:20;;;;;;;86.25;39.78;;;15.70;72.20;;;;;;4995035;28;20406;-46
2023/03/26 09:38:56;;;;;;;;;;;15.70;72.20;;;;;;4995333;28;20174;-43
2023/03/26 09:41:43;;;;;;;85.13;38.72;;;15.70;72.20;;;;;;4994535;28;19921;-48
2023/03/26 09:44:22;;;;;;;78.18;37.72;;;15.70;72.50;;;;;;4995046;28;20046;-48
2023/03/26 09:47:13;;;;;;;76.53;37.42;;;15.70;72.30;;;;;;4994794;28;20490;-48
2023/03/26 09:49:51;;;;;;;77.57;37.13;;;15.70;72.30;;;;;;4994580;28;20050;-49
2023/03/26 09:52:30;;;;;;;76.45;35.17;;;15.60;72.20;;;;;;4994954;28;20069;-50
2023/03/26 09:55:18;;;;;;;75.13;36.33;;;15.60;72.20;;;;;;4994002;28;20563;-48
2023/03/26 09:58:03;;;;;;;77.10;35.65;;;15.60;72.20;;;;;;4994778;28;20054;-46
2023/03/26 10:00:41;;;;;;;77.55;37.38;;;15.70;72.20;;;;;;4994580;28;20069;-48
2023/03/26 10:03:11;;;;;;;74.57;34.65;;;15.70;72.20;;;;;;5021066;28;20076;-47
2023/03/26 10:05:50;;;;;;;73.85;35.33;;;15.70;72.10;;;;;;5034080;28;20107;-45
2023/03/26 10:08:38;;;;;;;71.43;35.45;;;15.70;72.10;;;;;;5032545;28;20428;-47
2023/03/26 10:11:36;;;;;;;77.28;36.42;;;15.70;72.10;;;;;;5033507;28;20054;-47
2023/03/26 10:14:17;;;;;;;66.60;32.17;;;15.70;72.20;;;;;;5032571;28;20049;-46
2023/03/26 10:17:06;;;;;;;68.70;32.65;;;15.70;72.30;;;;;;4992554;28;20078;-49
2023/03/26 10:19:39;;;;;;;67.97;33.03;;;15.60;72.40;;;;;;4994068;28;20481;-50
2023/03/26 10:22:30;;;;;;;65.18;31.02;;;15.70;72.30;;;;;;4994292;28;20069;-47
2023/03/26 10:25:12;;;;;;;63.42;30.65;;;15.70;72.20;;;;;;4992487;28;20137;-47
2023/03/26 10:27:51;;;;;;;62.22;30.20;;;15.70;72.10;;;;;;4994326;28;20050;-47
2023/03/26 10:30:44;;;;;;;66.50;33.10;;;15.70;72.10;;;;;;4991595;28;20611;-48
2023/03/26 10:33:34;;;;;;;59.45;29.42;;;15.70;72.00;;;;;;4992762;28;20069;-48
2023/03/26 10:36:22;;;;;;;59.97;28.05;;;15.70;71.80;;;;;;4992926;28;20133;-48
2023/03/26 10:39:15;;;;;;;61.22;28.88;;;15.70;71.70;;;;;;4992389;28;20069;-48
2023/03/26 10:42:10;;;;;;;62.47;29.23;;;15.80;71.80;;;;;;4992743;28;20055;-45
2023/03/26 10:45:14;;;;;;;60.35;28.70;;;15.70;71.80;;;;;;4993206;28;20050;-49
2023/03/26 10:48:18;;;;;;;59.30;27.80;;;15.80;71.70;;;;;;4993804;28;20073;-45
2023/03/26 10:51:11;;;;;;;54.60;26.70;;;15.80;71.50;;;;;;4993972;28;20050;-48
2023/03/26 10:53:44;;;;;;;;;;;15.70;71.40;;;;;;4992969;28;20058;-45
2023/03/26 10:56:31;;;;;;;52.95;25.92;;;15.80;71.50;;;;;;4993715;28;20088;-48
2023/03/26 10:58:59;;;;;;;55.83;26.40;;;15.70;71.60;;;;;;4991802;28;20094;-49
2023/03/26 11:01:29;;;;;;;55.47;25.55;;;15.80;71.90;;;;;;4992654;28;20450;-45
2023/03/26 11:03:56;;;;;;;48.95;24.80;;;15.70;72.10;;;;;;4993288;28;20050;-47
2023/03/26 11:06:48;;;;;;;50.45;24.15;;;15.80;71.90;;;;;;5001660;28;20076;-48
2023/03/26 11:09:18;;;;;;;50.03;23.48;;;15.80;71.60;;;;;;5012983;28;20070;-48
2023/03/26 11:12:02;;;;;;;48.65;22.85;;;15.80;71.50;;;;;;5012930;28;20509;-48
2023/03/26 11:15:11;;;;;;;45.03;22.85;;;15.80;71.20;;;;;;5012790;28;20131;-49
2023/03/26 11:17:57;;;;;;;48.40;22.75;;;15.80;71.20;;;;;;5012915;28;20085;-44
2023/03/26 11:20:44;;;;;;;46.85;23.08;;;15.90;71.10;;;;;;5012719;28;20065;-48
2023/03/26 11:23:28;;;;;;;45.00;21.67;;;15.90;71.00;;;;;;5012690;28;20076;-46
2023/03/26 11:25:57;;;;;;;48.25;21.83;;;16.00;71.00;;;;;;5012513;28;20092;-47
2023/03/26 11:28:49;;;;;;;46.13;22.50;;;16.00;70.90;;;;;;5011429;28;20079;-47
2023/03/26 11:32:06;;;;;;;41.38;19.90;;;15.90;70.70;;;;;;5011805;28;20485;-46
2023/03/26 11:34:39;;;;;;;36.47;19.42;;;16.00;70.80;;;;;;5010941;28;20064;-45
2023/03/26 11:37:12;;;;;;;43.65;21.20;;;16.00;70.80;;;;;;4996257;28;20053;-47
2023/03/26 11:39:45;;;;;;;42.13;20.70;;;16.00;70.70;;;;;;5012289;28;20058;-47
2023/03/26 11:42:13;;;;;;;40.72;20.23;;;16.00;70.60;;;;;;5014939;28;20616;-47
2023/03/26 11:44:46;;;;;;;42.95;19.83;;;16.00;70.50;;;;;;5015621;28;20137;-48
2023/03/26 11:47:14;;;;;;;38.35;19.45;;;16.00;70.50;;;;;;4999914;28;20137;-47
2023/03/26 11:49:41;;;;;;;38.65;18.60;;;16.10;70.60;;;;;;4999108;28;20049;-43
2023/03/26 11:52:10;;;;;;;39.75;19.42;;;16.10;70.50;;;;;;5016804;28;20072;-46
2023/03/26 11:54:37;;;;;;;34.10;16.92;;;16.10;70.50;;;;;;5015021;28;20133;-44
2023/03/26 11:57:09;;;;;;;34.80;16.73;;;16.10;70.40;;;;;;5016791;28;20052;-47
2023/03/26 11:59:40;;;;;;;34.60;17.30;;;16.10;70.30;;;;;;5015233;28;20447;-48
2023/03/26 12:02:28;;;;;;;31.20;15.63;;;16.10;70.50;;;;;;5001427;28;20046;-48
2023/03/26 12:05:23;;;;;;;33.70;16.77;;;16.20;70.50;;;;;;5016563;28;20050;-45
2023/03/26 12:07:55;;;;;;;34.97;17.33;;;16.10;70.30;;;;;;5015322;28;20126;-45
2023/03/26 12:10:24;;;;;;;32.03;16.92;;;16.20;70.30;;;;;;5027208;28;20049;-47
2023/03/26 12:12:52;;;;;;;35.40;17.33;;;16.20;70.30;;;;;;5036252;28;20136;-47
2023/03/26 12:15:19;;;;;;;33.35;17.30;;;16.20;70.30;;;;;;5024161;28;20058;-48
2023/03/26 12:17:52;;;;;;;30.95;15.60;;;16.20;70.30;;;;;;5015362;28;20501;-48
2023/03/26 12:20:25;;;;;;;33.78;15.95;;;16.30;70.40;;;;;;5015617;28;20050;-49
2023/03/26 12:22:57;;;;;;;;;;;16.30;70.30;;;;;;5015880;28;20046;-45
2023/03/26 12:25:25;;;;;;;31.13;14.38;;;16.30;70.30;;;;;;5014754;28;19921;-46
2023/03/26 12:28:17;;;;;;;29.38;14.93;;;16.30;70.20;;;;;;5016178;28;20092;-47
2023/03/26 12:30:57;;;;;;;31.10;15.05;;;16.30;70.10;;;;;;5015119;28;20053;-47
2023/03/26 12:33:26;;;;;;;29.17;14.30;;;16.40;70.10;;;;;;5015890;28;20081;-46
2023/03/26 12:35:53;;;;;;;27.52;13.88;;;16.40;70.10;;;;;;5015593;28;20136;-43
2023/03/26 12:38:34;;;;;;;26.45;13.43;;;16.40;70.20;;;;;;5013977;28;20061;-49
2023/03/26 12:41:05;;;;;;;24.73;13.23;;;16.40;70.20;;;;;;5015695;28;20046;-43
2023/03/26 12:43:51;;;;;;;27.90;14.07;;;16.40;70.10;;;;;;5015863;28;20057;-46
2023/03/26 12:46:39;;;;;;;29.13;13.63;;;16.40;70.10;;;;;;5015642;28;20054;-47
2023/03/26 12:49:27;;;;;;;27.20;13.32;;;16.50;70.20;;;;;;5015809;28;20061;-46